首页
METAR-TAF:

METAR-TAF

机场 :

大學公園市, 马里兰州, 美国

纬度: 38-58-50N, 经度: 076-55-20W, 海拔: 15米

当前天气观测

该预报发布于16分钟前的09:36 UTC
风速3节,风向
温度 -3°C
湿度 63%
气压 1038 hPa
能見度: 16.1公里
天空无云

METAR: KCGS 120936Z AUTO 35003KT 10SM CLR M03/M09 A3066 RMK AO1 T10281088

时间: 04:52 (09:52 UTC)


TAF: 丢失

超过4000个机场的气象观测和天气预报(METAR&TAF报告)。

可查询的气象台以黄色和红色小点在地图上表示。

将鼠标移到小点上方,可查看气象台名称。

然后点击查看天气观测和预报。

如需切换地图:点击带黑十字的绿色按钮放大地图;点击带横线的绿色按钮缩小地图;或者点击绿色箭头查看邻近地区的地图。


METAR-TAF: